Time;durP1;ratioP1;P1;durP2;ratioP2;P2;SDS_P1;SDS_P2;PMS_P1;PMS_P2;Temp;Humidity;BMP_temperature;BMP_pressure;BME280_temperature;BME280_humidity;BME280_pressure;Samples;Min_cycle;Max_cycle;Signal;HPM_P1;HPM_P2
2023/11/12 00:01:44;;;;;;;3.20;2.90;;;4.70;99.90;;;;;;5030599;28;20458;-37
2023/11/12 00:04:12;;;;;;;3.43;2.73;;;4.70;99.90;;;;;;5015929;28;20465;-38
2023/11/12 00:06:40;;;;;;;4.37;3.10;;;4.70;99.90;;;;;;5016224;28;20557;-37
2023/11/12 00:09:06;;;;;;;4.80;2.97;;;4.80;93.00;;;;;;5016333;28;20473;-39
2023/11/12 00:11:36;;;;;;;3.67;2.90;;;4.70;99.90;;;;;;4998799;28;20808;-36
2023/11/12 00:14:02;;;;;;;3.43;2.90;;;4.70;99.90;;;;;;5016125;28;20502;-37
2023/11/12 00:16:30;;;;;;;3.57;3.20;;;4.60;99.90;;;;;;5013983;28;20449;-39
2023/11/12 00:18:56;;;;;;;2.97;2.40;;;4.60;99.90;;;;;;5013685;28;20741;-37
2023/11/12 00:21:23;;;;;;;2.93;2.57;;;4.60;99.90;;;;;;5015021;28;20508;-38
2023/11/12 00:23:51;;;;;;;3.10;2.70;;;4.60;99.90;;;;;;5016076;28;20848;-38
2023/11/12 00:26:17;;;;;;;3.80;2.67;;;4.60;96.50;;;;;;5016416;28;20422;-37
2023/11/12 00:28:42;;;;;;;6.03;2.23;;;4.60;99.90;;;;;;5015627;28;20429;-37
2023/11/12 00:31:08;;;;;;;2.50;2.23;;;4.60;99.90;;;;;;5013743;28;20414;-37
2023/11/12 00:33:34;;;;;;;3.47;2.67;;;4.60;99.90;;;;;;5015569;28;20273;-37
2023/11/12 00:35:59;;;;;;;3.00;2.40;;;4.60;99.90;;;;;;5014869;28;20218;-37
2023/11/12 00:38:25;;;;;;;2.60;2.40;;;4.60;99.90;;;;;;5016417;28;20269;-36
2023/11/12 00:40:51;;;;;;;3.47;2.27;;;4.60;99.90;;;;;;5015723;28;20183;-36
2023/11/12 00:43:16;;;;;;;3.97;2.50;;;4.70;99.90;;;;;;5015700;28;20219;-36
2023/11/12 00:45:42;;;;;;;3.70;2.67;;;4.70;99.90;;;;;;5016417;28;20302;-37
2023/11/12 00:48:08;;;;;;;5.90;2.33;;;4.70;99.90;;;;;;5016676;28;20647;-37
2023/11/12 00:50:38;;;;;;;5.20;2.17;;;4.70;99.90;;;;;;5016005;28;20240;-37
2023/11/12 00:53:03;;;;;;;2.57;2.00;;;4.80;59.90;;;;;;5015273;28;20282;-37
2023/11/12 00:55:29;;;;;;;3.10;2.23;;;4.80;45.00;;;;;;5013966;28;20726;-36
2023/11/12 00:57:54;;;;;;;2.13;1.80;;;4.80;55.80;;;;;;5014526;28;20183;-37
2023/11/12 01:00:20;;;;;;;2.83;2.33;;;4.70;59.70;;;;;;5012765;28;20194;-37
2023/11/12 01:02:45;;;;;;;2.27;1.53;;;4.70;99.90;;;;;;5014203;28;20200;-36
2023/11/12 01:05:11;;;;;;;2.43;1.93;;;4.70;41.90;;;;;;5012260;28;20203;-39
2023/11/12 01:07:37;;;;;;;2.67;1.90;;;4.80;35.50;;;;;;5013464;28;20295;-37
2023/11/12 01:10:03;;;;;;;4.10;2.00;;;4.80;32.70;;;;;;5014234;28;20489;-37
2023/11/12 01:12:29;;;;;;;8.53;2.20;;;4.80;55.70;;;;;;5018467;28;20241;-36
2023/11/12 01:14:55;;;;;;;2.20;1.90;;;4.70;72.20;;;;;;5018415;28;20615;-38
2023/11/12 01:17:21;;;;;;;3.20;2.60;;;4.70;98.10;;;;;;5019133;28;20434;-37
2023/11/12 01:19:46;;;;;;;3.77;1.93;;;4.70;99.90;;;;;;5019608;28;20203;-37
2023/11/12 01:22:12;;;;;;;1.97;1.60;;;4.70;95.50;;;;;;5018176;28;20443;-36
2023/11/12 01:24:38;;;;;;;2.63;1.90;;;4.70;81.90;;;;;;5017774;28;20255;-45
2023/11/12 01:27:04;;;;;;;2.67;1.80;;;4.80;76.00;;;;;;5015986;28;20206;-45
2023/11/12 01:29:30;;;;;;;2.47;1.80;;;4.80;51.40;;;;;;5015300;28;20273;-45
2023/11/12 01:31:55;;;;;;;2.37;2.13;;;4.70;99.90;;;;;;5014017;28;20589;-46
2023/11/12 01:34:22;;;;;;;2.30;2.10;;;4.80;92.80;;;;;;5016106;28;20191;-47
2023/11/12 01:36:48;;;;;;;2.40;1.80;;;4.80;85.30;;;;;;5018269;28;20256;-47
2023/11/12 01:39:14;;;;;;;2.27;1.93;;;4.80;46.40;;;;;;5018042;28;20545;-46
2023/11/12 01:41:39;;;;;;;2.60;1.83;;;4.80;78.20;;;;;;5017716;28;20569;-46
2023/11/12 01:44:05;;;;;;;2.63;1.80;;;4.70;96.90;;;;;;5017471;28;20237;-47
2023/11/12 01:46:31;;;;;;;3.40;2.30;;;4.80;92.90;;;;;;5016817;28;20307;-46
2023/11/12 01:48:57;;;;;;;2.90;1.90;;;4.80;93.00;;;;;;5014750;28;20175;-44
2023/11/12 01:51:23;;;;;;;2.50;2.30;;;4.70;93.30;;;;;;5015435;28;20257;-45
2023/11/12 01:53:49;;;;;;;2.97;2.00;;;4.80;69.30;;;;;;5013492;28;20389;-45
2023/11/12 01:56:16;;;;;;;3.80;2.10;;;4.80;71.90;;;;;;5014411;28;20442;-45
2023/11/12 01:58:43;;;;;;;2.13;1.40;;;4.80;1.00;;;;;;5016454;28;20414;-45
2023/11/12 02:01:10;;;;;;;2.37;1.60;;;4.80;1.00;;;;;;5014694;28;20489;-45
2023/11/12 02:03:36;;;;;;;3.13;1.70;;;4.80;2.10;;;;;;5015941;28;20485;-44
2023/11/12 02:06:03;;;;;;;2.53;1.93;;;4.80;14.30;;;;;;5015598;28;20426;-45
2023/11/12 02:08:30;;;;;;;2.63;1.70;;;4.80;25.50;;;;;;5015599;28;20780;-45
2023/11/12 02:10:56;;;;;;;3.20;2.10;;;4.80;17.20;;;;;;5015326;28;20517;-45
2023/11/12 02:13:22;;;;;;;2.80;1.60;;;4.80;11.50;;;;;;5015810;28;20568;-45
2023/11/12 02:15:49;;;;;;;3.30;1.73;;;4.80;1.00;;;;;;5016452;28;20179;-45
2023/11/12 02:18:15;;;;;;;3.00;1.90;;;5.00;99.90;;;;;;5017537;28;20708;-44
2023/11/12 02:20:46;;;;;;;2.70;2.23;;;5.60;1.00;;;;;;5017015;28;20426;-45
2023/11/12 02:23:14;;;;;;;2.10;1.80;;;6.10;1.00;;;;;;5030686;28;20249;-45
2023/11/12 02:32:30;;;;;;;3.10;1.50;;;5.90;1.00;;;;;;5012481;28;20477;-45
2023/11/12 02:34:57;;;;;;;2.47;1.47;;;5.70;99.90;;;;;;5014946;28;20844;-45
2023/11/12 02:37:24;;;;;;;1.60;1.33;;;5.60;99.90;;;;;;5016940;28;20430;-45
2023/11/12 02:39:49;;;;;;;1.93;1.43;;;5.50;99.90;;;;;;5015321;28;20442;-44
2023/11/12 02:42:16;;;;;;;2.30;2.10;;;5.50;10.70;;;;;;5013789;28;20428;-45
2023/11/12 02:44:43;;;;;;;3.97;1.47;;;5.40;1.00;;;;;;5016393;28;20514;-45
2023/11/12 02:47:09;;;;;;;2.27;1.67;;;5.30;1.00;;;;;;5016631;28;20686;-45
2023/11/12 02:49:40;;;;;;;1.83;1.60;;;5.20;1.00;;;;;;5016301;28;20496;-45
2023/11/12 02:52:06;;;;;;;2.03;1.50;;;5.10;1.00;;;;;;5016723;28;20418;-44
2023/11/12 02:54:34;;;;;;;2.60;1.50;;;5.00;1.00;;;;;;5016170;28;20424;-45
2023/11/12 02:57:03;;;;;;;3.70;1.90;;;4.90;1.00;;;;;;5015521;28;20418;-45
2023/11/12 02:59:29;;;;;;;4.10;1.60;;;4.90;1.00;;;;;;5015685;28;20426;-45
2023/11/12 03:01:55;;;;;;;3.30;1.83;;;4.80;1.00;;;;;;5016494;28;20437;-45
2023/11/12 03:04:21;;;;;;;3.27;2.00;;;4.70;1.00;;;;;;5016104;28;20470;-45
2023/11/12 03:06:47;;;;;;;2.60;1.90;;;4.60;1.00;;;;;;5016919;28;20440;-45
2023/11/12 03:09:16;;;;;;;3.47;2.13;;;4.60;1.00;;;;;;5016036;28;20186;-45
2023/11/12 03:11:42;;;;;;;2.23;1.40;;;4.50;1.00;;;;;;5015078;28;20728;-44
2023/11/12 03:14:08;;;;;;;2.80;1.40;;;4.40;1.00;;;;;;5012753;28;20605;-44
2023/11/12 03:16:34;;;;;;;2.80;2.00;;;4.30;1.00;;;;;;5013298;28;20237;-44
2023/11/12 03:19:00;;;;;;;2.70;1.90;;;4.30;1.00;;;;;;5015061;28;20470;-45
2023/11/12 03:21:29;;;;;;;2.17;1.97;;;4.20;1.00;;;;;;5013837;28;20418;-45
2023/11/12 03:23:55;;;;;;;1.93;1.73;;;4.20;1.00;;;;;;5014010;28;20486;-44
2023/11/12 03:26:21;;;;;;;3.10;1.47;;;4.20;1.00;;;;;;5014855;28;20598;-45
2023/11/12 03:28:47;;;;;;;3.17;1.73;;;4.10;8.50;;;;;;5015069;28;20529;-46
2023/11/12 03:31:13;;;;;;;2.00;1.80;;;4.10;9.30;;;;;;5014890;28;20478;-45
2023/11/12 03:33:38;;;;;;;2.67;1.80;;;4.10;3.40;;;;;;5015705;28;20429;-45
2023/11/12 03:36:04;;;;;;;2.43;1.83;;;4.10;7.40;;;;;;5015970;28;20168;-45
2023/11/12 03:38:31;;;;;;;4.20;2.00;;;4.00;15.90;;;;;;5016158;28;20553;-44
2023/11/12 03:40:57;;;;;;;2.50;1.90;;;4.00;21.10;;;;;;5015971;28;20477;-45
2023/11/12 03:43:22;;;;;;;4.53;2.20;;;4.00;24.10;;;;;;5014948;28;20553;-44
2023/11/12 03:45:48;;;;;;;3.73;2.40;;;4.00;24.30;;;;;;5016037;28;20433;-45
2023/11/12 03:48:14;;;;;;;3.07;1.97;;;4.00;6.30;;;;;;5015850;28;20446;-44
2023/11/12 03:50:39;;;;;;;3.57;2.13;;;3.90;1.30;;;;;;5015789;28;20195;-44
2023/11/12 03:53:05;;;;;;;3.30;2.30;;;3.90;2.90;;;;;;5014737;28;20215;-46
2023/11/12 03:55:31;;;;;;;2.93;2.07;;;3.90;2.90;;;;;;5013901;28;20226;-45
2023/11/12 03:57:56;;;;;;;3.50;2.10;;;3.90;9.80;;;;;;5013784;28;20198;-44
2023/11/12 04:00:24;;;;;;;2.57;2.20;;;3.90;12.10;;;;;;5014442;28;20179;-44
2023/11/12 04:02:50;;;;;;;1.93;1.50;;;3.80;11.60;;;;;;5014032;28;20249;-45
2023/11/12 04:05:15;;;;;;;2.90;2.07;;;3.80;18.20;;;;;;5013907;28;20426;-45
2023/11/12 04:07:41;;;;;;;2.60;1.77;;;3.80;34.60;;;;;;5014094;28;20449;-45
2023/11/12 04:10:07;;;;;;;1.90;1.70;;;3.80;48.80;;;;;;5014045;28;20573;-45
2023/11/12 04:12:33;;;;;;;1.97;1.77;;;3.80;74.80;;;;;;5014707;28;20266;-45
2023/11/12 04:14:58;;;;;;;2.43;2.00;;;3.80;90.20;;;;;;5014500;28;20446;-44
2023/11/12 04:17:24;;;;;;;2.80;2.10;;;3.80;92.00;;;;;;5012870;28;20274;-45
2023/11/12 04:19:50;;;;;;;1.90;1.70;;;3.80;95.00;;;;;;5012801;28;20486;-44
2023/11/12 04:22:16;;;;;;;2.13;1.57;;;3.80;99.90;;;;;;5013200;28;20549;-45
2023/11/12 04:24:42;;;;;;;2.10;1.63;;;3.80;99.90;;;;;;5012272;28;20907;-45
2023/11/12 04:27:08;;;;;;;5.03;1.70;;;3.80;99.90;;;;;;5013722;28;20820;-44
2023/11/12 04:29:34;;;;;;;3.07;2.10;;;3.80;99.90;;;;;;5014754;28;20454;-44
2023/11/12 04:32:03;;;;;;;2.80;1.70;;;3.80;99.90;;;;;;5013956;28;20480;-45
2023/11/12 04:34:29;;;;;;;1.90;1.60;;;3.80;99.90;;;;;;5015170;28;20747;-45
2023/11/12 04:36:56;;;;;;;2.23;1.70;;;3.80;99.90;;;;;;5014846;28;20426;-45
2023/11/12 04:39:22;;;;;;;2.47;1.60;;;3.80;99.90;;;;;;5014837;28;20290;-45
2023/11/12 04:41:48;;;;;;;4.23;3.50;;;3.80;99.90;;;;;;5015098;28;20418;-45
2023/11/12 04:44:14;;;;;;;4.00;2.17;;;3.80;99.90;;;;;;5014435;28;20871;-45
2023/11/12 04:46:39;;;;;;;2.53;1.70;;;3.80;99.90;;;;;;5016357;28;20520;-44
2023/11/12 04:49:05;;;;;;;2.60;1.97;;;3.70;99.90;;;;;;5018778;28;20824;-44
2023/11/12 04:51:32;;;;;;;2.17;1.70;;;3.70;99.90;;;;;;5018112;28;20418;-45
2023/11/12 04:53:58;;;;;;;4.20;2.20;;;3.70;99.90;;;;;;5017896;28;20428;-45
2023/11/12 04:56:24;;;;;;;2.27;1.93;;;3.70;99.90;;;;;;5017433;28;20816;-45
2023/11/12 04:58:49;;;;;;;3.33;2.10;;;3.70;99.90;;;;;;5018724;28;20337;-44
2023/11/12 05:01:15;;;;;;;1.87;1.67;;;3.70;99.90;;;;;;5019211;28;20179;-45
2023/11/12 05:03:41;;;;;;;2.20;1.67;;;3.70;99.90;;;;;;5017513;28;20348;-45
2023/11/12 05:06:07;;;;;;;4.70;2.63;;;3.70;99.90;;;;;;5015800;28;20356;-44
2023/11/12 05:08:34;;;;;;;3.67;1.70;;;3.70;99.90;;;;;;5017187;28;20189;-43
2023/11/12 05:11:00;;;;;;;2.67;1.97;;;3.70;99.90;;;;;;5017340;28;20468;-45
2023/11/12 05:13:26;;;;;;;2.30;1.47;;;3.70;99.90;;;;;;5017355;28;20414;-45
2023/11/12 05:15:51;;;;;;;2.33;1.93;;;3.70;99.90;;;;;;5017708;28;20434;-45
2023/11/12 05:18:17;;;;;;;2.60;1.77;;;3.70;99.90;;;;;;5018226;28;20215;-44
2023/11/12 05:20:43;;;;;;;2.97;2.00;;;3.60;99.90;;;;;;5017026;28;20185;-45
2023/11/12 05:23:09;;;;;;;3.43;2.17;;;3.60;99.90;;;;;;5018205;28;20504;-45
2023/11/12 05:25:35;;;;;;;1.70;1.50;;;3.60;99.90;;;;;;5018542;28;20437;-45
2023/11/12 05:28:01;;;;;;;3.53;2.10;;;3.60;99.90;;;;;;5017609;28;20808;-44
2023/11/12 05:30:27;;;;;;;2.90;1.70;;;3.60;99.90;;;;;;5017488;28;20253;-45
2023/11/12 05:32:53;;;;;;;3.70;1.80;;;3.60;99.90;;;;;;5016889;28;20218;-44
2023/11/12 05:35:19;;;;;;;3.73;2.00;;;3.50;99.90;;;;;;5017006;28;20851;-44
2023/11/12 05:37:47;;;;;;;3.10;2.20;;;3.50;95.10;;;;;;5017953;28;20504;-44
2023/11/12 05:40:13;;;;;;;2.37;1.80;;;3.40;99.90;;;;;;5017610;28;20458;-44
2023/11/12 05:42:39;;;;;;;4.33;1.63;;;3.30;99.90;;;;;;5017250;28;20410;-44
2023/11/12 05:45:05;;;;;;;2.60;1.77;;;3.30;99.90;;;;;;5017737;28;20526;-44
2023/11/12 05:47:31;;;;;;;4.60;1.90;;;3.30;99.90;;;;;;5018210;28;20266;-42
2023/11/12 05:49:57;;;;;;;2.97;2.00;;;3.30;99.90;;;;;;5015979;28;20533;-44
2023/11/12 05:52:22;;;;;;;3.90;2.23;;;3.30;99.90;;;;;;5016115;28;20426;-44
2023/11/12 05:54:48;;;;;;;3.87;2.33;;;3.30;99.90;;;;;;5016452;28;20198;-44
2023/11/12 05:57:14;;;;;;;5.80;2.80;;;3.30;99.90;;;;;;5014259;28;20188;-44
2023/11/12 05:59:39;;;;;;;3.10;2.80;;;3.30;99.90;;;;;;5015748;28;20187;-44
2023/11/12 06:02:05;;;;;;;10.43;3.27;;;3.20;99.90;;;;;;5016691;28;20592;-44
2023/11/12 06:04:30;;;;;;;3.20;2.90;;;3.30;99.90;;;;;;5015450;28;20292;-44
2023/11/12 06:06:57;;;;;;;4.10;3.47;;;3.30;99.90;;;;;;5015341;28;20596;-44
2023/11/12 06:09:22;;;;;;;3.80;3.17;;;3.30;99.90;;;;;;5016727;28;20175;-46
2023/11/12 06:11:49;;;;;;;6.50;3.30;;;3.20;99.90;;;;;;5017178;28;20572;-44
2023/11/12 06:14:14;;;;;;;5.23;2.97;;;3.20;99.90;;;;;;5017638;28;20198;-45
2023/11/12 06:16:40;;;;;;;3.97;3.23;;;3.20;99.90;;;;;;5016908;28;20449;-46
2023/11/12 06:19:06;;;;;;;3.30;2.83;;;3.20;99.90;;;;;;5017591;28;20202;-45
2023/11/12 06:21:31;;;;;;;3.37;3.07;;;3.20;99.90;;;;;;5017339;28;20217;-45
2023/11/12 06:23:57;;;;;;;8.10;3.17;;;3.20;99.90;;;;;;5016117;28;20214;-45
2023/11/12 06:26:23;;;;;;;3.13;2.83;;;3.10;99.90;;;;;;5016250;28;20197;-45
2023/11/12 06:28:49;;;;;;;3.63;3.30;;;3.10;99.90;;;;;;5015922;28;20283;-45
2023/11/12 06:31:16;;;;;;;4.17;2.70;;;3.20;99.90;;;;;;5017153;28;20345;-45
2023/11/12 06:33:43;;;;;;;3.23;2.93;;;3.20;99.90;;;;;;5017404;28;20406;-44
2023/11/12 06:36:13;;;;;;;4.00;3.10;;;3.20;99.90;;;;;;5016278;28;20414;-45
2023/11/12 06:38:40;;;;;;;3.63;2.90;;;3.20;99.90;;;;;;5017439;28;20426;-45
2023/11/12 06:41:06;;;;;;;4.07;3.67;;;3.30;99.90;;;;;;5017600;28;20819;-44
2023/11/12 06:43:31;;;;;;;4.13;3.73;;;3.30;99.90;;;;;;5016791;28;20903;-44
2023/11/12 06:45:57;;;;;;;5.50;3.83;;;3.30;99.90;;;;;;5016661;28;20576;-45
2023/11/12 06:48:24;;;;;;;11.70;10.70;;;3.40;99.90;;;;;;5015333;28;20347;-45
2023/11/12 06:50:50;;;;;;;7.87;7.13;;;3.40;99.90;;;;;;5014957;28;20182;-45
2023/11/12 06:53:15;;;;;;;5.30;4.80;;;3.40;99.90;;;;;;5015930;28;20874;-44
2023/11/12 06:55:41;;;;;;;4.30;3.83;;;3.50;99.90;;;;;;5015246;28;20211;-45
2023/11/12 06:58:06;;;;;;;3.90;3.60;;;3.50;99.90;;;;;;5015661;28;20191;-45
2023/11/12 07:00:33;;;;;;;4.03;3.73;;;3.50;99.90;;;;;;5015707;28;20216;-43
2023/11/12 07:02:58;;;;;;;4.17;3.60;;;3.50;99.90;;;;;;5014922;28;20183;-44
2023/11/12 07:05:26;;;;;;;4.30;3.67;;;3.60;99.90;;;;;;5015464;28;20499;-45
2023/11/12 07:07:52;;;;;;;4.73;4.23;;;3.60;99.90;;;;;;5014893;28;20190;-45
2023/11/12 07:10:19;;;;;;;4.80;3.90;;;3.60;99.90;;;;;;5014492;28;20434;-45
2023/11/12 07:12:44;;;;;;;4.57;4.07;;;3.70;99.90;;;;;;5014012;28;20422;-44
2023/11/12 07:15:10;;;;;;;4.83;3.90;;;3.80;99.90;;;;;;5015273;28;20410;-44
2023/11/12 07:17:36;;;;;;;5.07;4.53;;;3.80;99.90;;;;;;5015981;28;20183;-45
2023/11/12 07:20:02;;;;;;;5.07;4.40;;;3.90;99.90;;;;;;5015226;28;20430;-45
2023/11/12 07:22:28;;;;;;;5.40;4.90;;;4.00;99.90;;;;;;5030463;28;20197;-45
2023/11/12 07:24:55;;;;;;;5.00;4.50;;;4.00;99.90;;;;;;5015394;28;20504;-45
2023/11/12 07:27:21;;;;;;;5.10;4.60;;;4.00;99.90;;;;;;5014782;28;20179;-45
2023/11/12 07:29:46;;;;;;;5.73;4.97;;;4.00;99.90;;;;;;5014998;28;20700;-45
2023/11/12 07:32:12;;;;;;;4.43;4.03;;;4.10;99.90;;;;;;5015259;28;20239;-44
2023/11/12 07:34:37;;;;;;;4.23;3.83;;;4.10;99.90;;;;;;5013550;28;20186;-46
2023/11/12 07:37:04;;;;;;;5.30;4.80;;;4.10;44.60;;;;;;5012075;28;20199;-45
2023/11/12 07:39:29;;;;;;;5.63;4.50;;;4.10;47.40;;;;;;5012559;28;20205;-45
2023/11/12 07:41:55;;;;;;;4.57;4.10;;;4.10;44.20;;;;;;5013231;28;20418;-47
2023/11/12 07:44:21;;;;;;;5.50;4.90;;;4.20;53.70;;;;;;5012525;28;20485;-48
2023/11/12 07:46:47;;;;;;;5.93;4.47;;;4.20;53.00;;;;;;5013486;28;20427;-45
2023/11/12 07:49:13;;;;;;;4.83;4.43;;;4.20;60.60;;;;;;5013568;28;20430;-45
2023/11/12 07:51:39;;;;;;;4.50;3.80;;;4.30;52.40;;;;;;5013192;28;20278;-46
2023/11/12 07:54:05;;;;;;;6.03;3.57;;;4.30;35.60;;;;;;5030624;28;20415;-46
2023/11/12 07:56:31;;;;;;;5.37;4.07;;;4.40;21.70;;;;;;5014314;28;20234;-52
2023/11/12 07:58:57;;;;;;;6.60;3.90;;;4.40;12.70;;;;;;5015119;28;20438;-46
2023/11/12 08:01:25;;;;;;;5.90;4.80;;;4.50;13.90;;;;;;5013421;28;20446;-47
2023/11/12 08:03:52;;;;;;;4.57;4.17;;;4.60;1.00;;;;;;5014498;28;20469;-47
2023/11/12 08:06:17;;;;;;;4.80;4.30;;;4.70;1.00;;;;;;5015206;28;20414;-47
2023/11/12 08:08:43;;;;;;;5.33;4.10;;;4.80;1.00;;;;;;5014576;28;20815;-47
2023/11/12 08:11:09;;;;;;;3.90;3.50;;;4.90;1.00;;;;;;5015032;28;20202;-46
2023/11/12 08:13:35;;;;;;;4.27;3.70;;;4.90;1.00;;;;;;5014180;28;20461;-46
2023/11/12 08:16:03;;;;;;;4.40;4.00;;;5.00;1.00;;;;;;4995021;28;20489;-46
2023/11/12 08:18:29;;;;;;;3.40;3.10;;;5.10;1.00;;;;;;5012285;28;20197;-46
2023/11/12 08:20:56;;;;;;;3.67;2.70;;;5.20;99.90;;;;;;5032159;28;20433;-46
2023/11/12 08:23:22;;;;;;;4.90;2.57;;;5.20;1.00;;;;;;5030254;28;20473;-46
2023/11/12 08:25:48;;;;;;;2.93;2.33;;;5.20;99.90;;;;;;5031854;28;20536;-46
2023/11/12 08:28:14;;;;;;;3.40;2.43;;;5.30;99.90;;;;;;5033167;28;20170;-45
2023/11/12 08:30:39;;;;;;;6.07;2.70;;;5.40;1.00;;;;;;5030500;28;20198;-44
2023/11/12 08:33:05;;;;;;;3.60;3.03;;;5.50;1.00;;;;;;5031225;28;20233;-45
2023/11/12 08:35:31;;;;;;;2.87;2.57;;;5.60;99.90;;;;;;5033451;28;20456;-44
2023/11/12 08:37:59;;;;;;;3.70;3.13;;;5.50;99.90;;;;;;5033364;28;20201;-45
2023/11/12 08:40:24;;;;;;;2.97;2.30;;;5.60;99.90;;;;;;5033115;28;20217;-45
2023/11/12 08:42:50;;;;;;;3.47;2.60;;;5.80;99.90;;;;;;5031442;28;20510;-45
2023/11/12 08:45:16;;;;;;;4.20;2.20;;;6.00;99.90;;;;;;5033268;28;20183;-45
2023/11/12 08:47:41;;;;;;;2.47;1.97;;;6.30;99.90;;;;;;5032706;28;20186;-45
2023/11/12 08:50:07;;;;;;;2.47;2.20;;;6.60;99.90;;;;;;5031601;28;20461;-45
2023/11/12 08:52:33;;;;;;;4.13;2.50;;;6.80;1.00;;;;;;5033273;28;20420;-45
2023/11/12 08:54:59;;;;;;;2.80;2.30;;;7.10;99.90;;;;;;5033719;28;20425;-46
2023/11/12 08:57:25;;;;;;;5.37;2.73;;;7.30;99.90;;;;;;5033524;28;20556;-45
2023/11/12 08:59:53;;;;;;;3.07;2.50;;;7.10;1.00;;;;;;5031108;28;20464;-50
2023/11/12 09:02:19;;;;;;;4.07;2.40;;;7.30;1.00;;;;;;5031792;28;20197;-44
2023/11/12 09:04:45;;;;;;;3.27;2.97;;;7.30;1.00;;;;;;5031234;28;20534;-45
2023/11/12 09:07:11;;;;;;;3.03;2.50;;;7.50;99.90;;;;;;5031559;28;20816;-44
2023/11/12 09:09:37;;;;;;;3.00;2.40;;;7.60;99.90;;;;;;5029865;28;20485;-45
2023/11/12 09:12:04;;;;;;;2.97;2.53;;;7.70;35.80;;;;;;5029533;28;20617;-45
2023/11/12 09:14:29;;;;;;;3.33;2.00;;;7.70;1.00;;;;;;5030441;28;20835;-45
2023/11/12 09:16:55;;;;;;;5.50;3.70;;;7.60;1.00;;;;;;5032253;28;20503;-45
2023/11/12 09:19:21;;;;;;;3.67;3.37;;;7.40;11.20;;;;;;5032100;28;20652;-46
2023/11/12 09:21:46;;;;;;;4.70;3.40;;;7.40;88.10;;;;;;5032147;28;20433;-44
2023/11/12 09:24:13;;;;;;;6.20;3.57;;;7.20;99.90;;;;;;5032905;28;20320;-45
2023/11/12 09:26:39;;;;;;;3.63;3.30;;;7.00;1.00;;;;;;5031026;28;20183;-45
2023/11/12 09:29:04;;;;;;;3.80;3.47;;;6.90;99.90;;;;;;5033144;28;20524;-46
2023/11/12 09:31:31;;;;;;;6.00;4.00;;;7.00;99.90;;;;;;5032249;28;20480;-46
2023/11/12 09:34:00;;;;;;;3.93;3.27;;;7.10;1.00;;;;;;5035958;28;20464;-46
2023/11/12 09:36:30;;;;;;;3.90;3.30;;;7.30;99.90;;;;;;5036870;28;20568;-46
2023/11/12 09:38:57;;;;;;;4.80;3.57;;;7.40;99.90;;;;;;5037230;28;20433;-45
2023/11/12 09:41:23;;;;;;;3.30;3.00;;;7.60;1.00;;;;;;5034638;28;20439;-38
2023/11/12 09:43:53;;;;;;;6.33;4.03;;;7.90;99.90;;;;;;5037428;28;20477;-40
2023/11/12 09:46:20;;;;;;;3.60;3.23;;;7.80;1.00;;;;;;5035754;28;20217;-37
2023/11/12 09:48:46;;;;;;;4.50;3.57;;;7.90;1.00;;;;;;5037078;28;20421;-39
2023/11/12 09:51:13;;;;;;;3.80;3.33;;;7.90;1.00;;;;;;5037053;28;20512;-38
2023/11/12 09:53:50;;;;;;;6.60;3.73;;;7.90;1.00;;;;;;5034476;28;20476;-37
2023/11/12 09:56:16;;;;;;;4.30;3.90;;;8.00;1.00;;;;;;5036229;28;20457;-40
2023/11/12 09:58:47;;;;;;;6.93;4.70;;;7.80;1.00;;;;;;5037055;28;20540;-37
2023/11/12 10:01:13;;;;;;;4.60;4.20;;;7.80;1.00;;;;;;5036397;28;20432;-38
2023/11/12 10:03:41;;;;;;;5.77;4.07;;;7.90;1.00;;;;;;5035730;28;20460;-37
2023/11/12 10:06:07;;;;;;;3.83;3.20;;;7.90;1.00;;;;;;5034555;28;20277;-36
2023/11/12 10:08:34;;;;;;;4.37;3.97;;;8.00;1.00;;;;;;5036305;28;20479;-39
2023/11/12 10:11:23;;;;;;;5.10;4.13;;;8.10;99.90;;;;;;5036936;28;20505;-37
2023/11/12 10:13:51;;;;;;;4.70;4.17;;;8.00;1.00;;;;;;5035654;28;20452;-38
2023/11/12 10:16:33;;;;;;;4.60;4.20;;;7.80;1.00;;;;;;5034033;28;20504;-38
2023/11/12 10:19:11;;;;;;;4.20;3.83;;;7.80;1.00;;;;;;5034707;28;20525;-39
2023/11/12 10:21:53;;;;;;;3.47;3.17;;;7.70;1.00;;;;;;5033646;28;20842;-38
2023/11/12 10:24:19;;;;;;;3.63;3.33;;;7.50;47.70;;;;;;5036337;28;20472;-36
2023/11/12 10:26:45;;;;;;;4.80;3.93;;;7.30;99.90;;;;;;5036895;28;20431;-36
2023/11/12 10:29:21;;;;;;;4.00;3.60;;;7.10;1.00;;;;;;5035779;28;20209;-46
2023/11/12 10:31:47;;;;;;;3.70;3.40;;;7.00;1.00;;;;;;5035030;28;20493;-37
2023/11/12 10:34:16;;;;;;;5.67;3.40;;;7.00;99.90;;;;;;5035022;28;20500;-37
2023/11/12 10:37:02;;;;;;;4.43;3.10;;;7.00;99.90;;;;;;5032706;28;20448;-37
2023/11/12 10:39:41;;;;;;;3.97;3.50;;;6.90;93.20;;;;;;5034942;28;20421;-37
2023/11/12 10:42:23;;;;;;;5.30;4.30;;;7.00;1.00;;;;;;5034011;28;20425;-35
2023/11/12 10:44:59;;;;;;;4.87;4.43;;;7.00;99.90;;;;;;5033199;28;20747;-38
2023/11/12 10:47:32;;;;;;;4.20;3.40;;;6.90;99.90;;;;;;5034083;28;20498;-37
2023/11/12 10:49:58;;;;;;;4.37;3.70;;;6.90;1.00;;;;;;5031664;28;20853;-38
2023/11/12 10:52:23;;;;;;;3.37;3.07;;;6.90;1.00;;;;;;5031817;28;20489;-38
2023/11/12 10:54:53;;;;;;;5.90;3.70;;;6.90;1.00;;;;;;5032999;28;20849;-37
2023/11/12 10:57:23;;;;;;;5.90;3.90;;;6.90;1.00;;;;;;5016594;28;20208;-37
2023/11/12 10:59:49;;;;;;;4.47;3.83;;;6.90;1.00;;;;;;5035728;28;20457;-38
2023/11/12 11:02:19;;;;;;;9.60;4.70;;;6.90;99.90;;;;;;5035321;28;20417;-37
2023/11/12 11:04:47;;;;;;;4.20;3.57;;;6.90;38.90;;;;;;5036537;28;20465;-39
2023/11/12 11:07:14;;;;;;;4.57;3.37;;;6.90;1.00;;;;;;5037005;28;20515;-38
2023/11/12 11:09:40;;;;;;;4.93;3.67;;;7.00;1.00;;;;;;5036604;28;20724;-37
2023/11/12 11:12:06;;;;;;;5.83;3.50;;;7.10;1.00;;;;;;5033884;28;20753;-37
2023/11/12 11:14:34;;;;;;;4.93;4.43;;;7.20;1.00;;;;;;5033578;28;20424;-38
2023/11/12 11:17:00;;;;;;;5.47;4.50;;;7.40;99.90;;;;;;5022554;28;20518;-39
2023/11/12 11:19:49;;;;;;;5.20;4.70;;;7.40;59.00;;;;;;5013460;28;20446;-38
2023/11/12 11:22:31;;;;;;;5.00;4.10;;;7.40;1.00;;;;;;5008990;28;20191;-39
2023/11/12 11:24:58;;;;;;;5.43;4.30;;;7.40;99.90;;;;;;5014005;28;20801;-39
2023/11/12 11:27:25;;;;;;;7.50;5.43;;;7.50;99.90;;;;;;5013020;28;20422;-37
2023/11/12 11:30:12;;;;;;;6.63;4.70;;;7.50;99.90;;;;;;5011592;28;20441;-38
2023/11/12 11:32:57;;;;;;;5.67;4.80;;;7.60;99.90;;;;;;5012913;28;20476;-38
2023/11/12 11:35:24;;;;;;;6.17;4.87;;;7.80;1.00;;;;;;5011160;28;20492;-40
2023/11/12 11:38:09;;;;;;;6.07;4.80;;;8.00;99.90;;;;;;5014812;28;20414;-37
2023/11/12 11:40:36;;;;;;;5.27;4.77;;;8.10;99.90;;;;;;5012108;28;20418;-40
2023/11/12 11:43:23;;;;;;;4.80;4.30;;;8.10;99.90;;;;;;5012017;28;20437;-37
2023/11/12 11:46:15;;;;;;;4.73;4.23;;;8.20;99.90;;;;;;5012662;28;20692;-36
2023/11/12 11:48:43;;;;;;;6.83;4.63;;;8.40;1.00;;;;;;5009102;28;20521;-37
2023/11/12 11:51:27;;;;;;;4.67;4.20;;;8.50;1.00;;;;;;5015610;28;20527;-37
2023/11/12 11:53:54;;;;;;;5.50;3.60;;;8.70;99.90;;;;;;5030555;28;20496;-37
2023/11/12 11:56:25;;;;;;;4.00;3.33;;;8.40;99.90;;;;;;5012967;28;20425;-37
2023/11/12 11:58:52;;;;;;;3.47;3.17;;;8.30;1.00;;;;;;5013164;28;20733;-38
2023/11/12 12:01:19;;;;;;;5.33;3.63;;;8.00;1.00;;;;;;5014563;28;20429;-39
2023/11/12 12:03:44;;;;;;;4.73;4.00;;;7.90;98.30;;;;;;5012103;28;20693;-38
2023/11/12 12:06:17;;;;;;;3.93;3.40;;;7.80;99.90;;;;;;5028594;28;20716;-38
2023/11/12 12:08:52;;;;;;;6.63;3.90;;;7.80;99.90;;;;;;5016270;28;20256;-37
2023/11/12 12:11:22;;;;;;;4.03;3.63;;;7.80;1.00;;;;;;5032966;28;20810;-38
2023/11/12 12:14:04;;;;;;;4.60;3.80;;;7.90;1.00;;;;;;5034637;28;20723;-36
2023/11/12 12:16:33;;;;;;;4.37;3.97;;;8.00;99.90;;;;;;5032545;28;20452;-37
2023/11/12 12:19:00;;;;;;;6.27;4.37;;;8.20;99.90;;;;;;5034314;28;20723;-37
2023/11/12 12:21:27;;;;;;;6.43;3.73;;;8.30;99.90;;;;;;5035501;28;20417;-37
2023/11/12 12:23:53;;;;;;;4.73;3.90;;;8.60;78.70;;;;;;5031518;28;20685;-38
2023/11/12 12:26:21;;;;;;;4.37;3.97;;;9.10;1.00;;;;;;5030511;28;20416;-39
2023/11/12 12:28:47;;;;;;;5.40;4.20;;;8.90;99.90;;;;;;5032770;28;20417;-37
2023/11/12 12:31:13;;;;;;;4.40;4.00;;;8.80;99.90;;;;;;5035128;28;20959;-37
2023/11/12 12:33:38;;;;;;;4.37;3.70;;;8.80;99.90;;;;;;5032650;28;20514;-37
2023/11/12 12:36:13;;;;;;;4.33;3.93;;;8.70;99.90;;;;;;5033258;28;20441;-39
2023/11/12 12:38:58;;;;;;;5.93;3.83;;;8.60;99.90;;;;;;5032862;28;20305;-37
2023/11/12 12:41:25;;;;;;;3.53;3.23;;;8.60;99.90;;;;;;5034472;28;20819;-37
2023/11/12 12:43:51;;;;;;;3.83;3.43;;;8.50;99.90;;;;;;5033637;28;20472;-37
2023/11/12 12:46:18;;;;;;;4.50;3.93;;;8.20;99.90;;;;;;5031962;28;20433;-37
2023/11/12 12:48:54;;;;;;;4.23;3.83;;;8.00;1.00;;;;;;5032256;28;20448;-36
2023/11/12 12:51:21;;;;;;;3.87;3.43;;;8.00;99.90;;;;;;5029826;28;20559;-38
2023/11/12 12:53:51;;;;;;;5.37;3.97;;;8.00;99.90;;;;;;5032353;28;20508;-37
2023/11/12 12:56:18;;;;;;;4.07;3.67;;;7.90;99.90;;;;;;5033030;28;20427;-38
2023/11/12 12:58:46;;;;;;;4.30;3.67;;;7.70;1.00;;;;;;5032059;28;20475;-39
2023/11/12 13:01:14;;;;;;;4.30;3.50;;;7.70;1.00;;;;;;5033627;28;20711;-38
2023/11/12 13:03:49;;;;;;;4.30;3.30;;;7.70;1.00;;;;;;5032863;28;20481;-38
2023/11/12 13:06:16;;;;;;;4.40;3.10;;;7.60;12.80;;;;;;5034490;28;20685;-36
2023/11/12 13:08:43;;;;;;;4.50;3.57;;;7.50;99.90;;;;;;5038223;28;20425;-37